sensor_id;sensor_type;location;lat;lon;timestamp;temperature;humidity
9118;DHT22;4594;50.994;7.126;2024-01-15T00:00:00;4.40;54.70
9118;DHT22;4594;50.994;7.126;2024-01-15T00:02:26;4.40;54.80
9118;DHT22;4594;50.994;7.126;2024-01-15T00:04:52;4.40;54.80
9118;DHT22;4594;50.994;7.126;2024-01-15T00:07:17;4.40;54.70
9118;DHT22;4594;50.994;7.126;2024-01-15T00:09:43;4.40;54.70
9118;DHT22;4594;50.994;7.126;2024-01-15T00:12:09;4.40;54.60
9118;DHT22;4594;50.994;7.126;2024-01-15T00:14:34;4.40;54.60
9118;DHT22;4594;50.994;7.126;2024-01-15T00:17:00;4.40;54.50
9118;DHT22;4594;50.994;7.126;2024-01-15T00:19:25;4.40;54.50
9118;DHT22;4594;50.994;7.126;2024-01-15T00:21:52;4.40;54.60
9118;DHT22;4594;50.994;7.126;2024-01-15T00:24:18;4.40;54.60
9118;DHT22;4594;50.994;7.126;2024-01-15T00:26:44;4.40;54.60
9118;DHT22;4594;50.994;7.126;2024-01-15T00:29:10;4.50;54.70
9118;DHT22;4594;50.994;7.126;2024-01-15T00:31:36;4.40;54.70
9118;DHT22;4594;50.994;7.126;2024-01-15T00:34:01;4.40;54.70
9118;DHT22;4594;50.994;7.126;2024-01-15T00:36:27;4.40;54.70
9118;DHT22;4594;50.994;7.126;2024-01-15T00:38:54;4.40;54.60
9118;DHT22;4594;50.994;7.126;2024-01-15T00:41:19;4.40;54.40
9118;DHT22;4594;50.994;7.126;2024-01-15T00:43:46;4.40;54.40
9118;DHT22;4594;50.994;7.126;2024-01-15T00:46:14;4.40;54.40
9118;DHT22;4594;50.994;7.126;2024-01-15T00:48:40;4.40;54.40
9118;DHT22;4594;50.994;7.126;2024-01-15T00:51:06;4.40;54.30
9118;DHT22;4594;50.994;7.126;2024-01-15T00:53:31;4.40;54.30
9118;DHT22;4594;50.994;7.126;2024-01-15T00:55:57;4.40;54.40
9118;DHT22;4594;50.994;7.126;2024-01-15T00:58:23;4.40;54.40
9118;DHT22;4594;50.994;7.126;2024-01-15T01:00:48;4.40;54.40
9118;DHT22;4594;50.994;7.126;2024-01-15T01:03:14;4.30;54.40
9118;DHT22;4594;50.994;7.126;2024-01-15T01:05:40;4.30;54.50
9118;DHT22;4594;50.994;7.126;2024-01-15T01:08:05;4.30;54.60
9118;DHT22;4594;50.994;7.126;2024-01-15T01:10:31;4.30;54.70
9118;DHT22;4594;50.994;7.126;2024-01-15T01:12:57;4.30;54.80
9118;DHT22;4594;50.994;7.126;2024-01-15T01:15:22;4.30;54.80
9118;DHT22;4594;50.994;7.126;2024-01-15T01:17:49;4.30;54.90
9118;DHT22;4594;50.994;7.126;2024-01-15T01:20:15;4.30;54.90
9118;DHT22;4594;50.994;7.126;2024-01-15T01:22:41;4.30;54.90
9118;DHT22;4594;50.994;7.126;2024-01-15T01:25:07;4.30;55.00
9118;DHT22;4594;50.994;7.126;2024-01-15T01:27:34;4.30;55.00
9118;DHT22;4594;50.994;7.126;2024-01-15T01:30:01;4.30;55.00
9118;DHT22;4594;50.994;7.126;2024-01-15T01:32:27;4.40;55.20
9118;DHT22;4594;50.994;7.126;2024-01-15T01:34:53;4.40;55.20
9118;DHT22;4594;50.994;7.126;2024-01-15T01:37:18;4.40;55.20
9118;DHT22;4594;50.994;7.126;2024-01-15T01:39:44;4.40;55.30
9118;DHT22;4594;50.994;7.126;2024-01-15T01:42:11;4.40;55.30
9118;DHT22;4594;50.994;7.126;2024-01-15T01:44:37;4.40;55.30
9118;DHT22;4594;50.994;7.126;2024-01-15T01:47:04;4.40;55.30
9118;DHT22;4594;50.994;7.126;2024-01-15T01:49:30;4.40;55.20
9118;DHT22;4594;50.994;7.126;2024-01-15T01:51:58;4.40;55.20
9118;DHT22;4594;50.994;7.126;2024-01-15T01:54:31;4.40;55.20
9118;DHT22;4594;50.994;7.126;2024-01-15T01:56:58;4.40;54.90
9118;DHT22;4594;50.994;7.126;2024-01-15T01:59:25;4.40;55.30
9118;DHT22;4594;50.994;7.126;2024-01-15T02:01:54;4.40;55.20
9118;DHT22;4594;50.994;7.126;2024-01-15T02:04:20;4.40;55.30
9118;DHT22;4594;50.994;7.126;2024-01-15T02:06:50;4.40;55.40
9118;DHT22;4594;50.994;7.126;2024-01-15T02:09:20;4.40;55.40
9118;DHT22;4594;50.994;7.126;2024-01-15T02:11:47;4.40;55.20
9118;DHT22;4594;50.994;7.126;2024-01-15T02:14:13;4.40;55.40
9118;DHT22;4594;50.994;7.126;2024-01-15T02:16:39;4.50;55.50
9118;DHT22;4594;50.994;7.126;2024-01-15T02:19:05;4.50;55.50
9118;DHT22;4594;50.994;7.126;2024-01-15T02:21:32;4.50;55.60
9118;DHT22;4594;50.994;7.126;2024-01-15T02:23:58;4.50;55.50
9118;DHT22;4594;50.994;7.126;2024-01-15T02:26:24;4.50;55.60
9118;DHT22;4594;50.994;7.126;2024-01-15T02:28:51;4.50;55.80
9118;DHT22;4594;50.994;7.126;2024-01-15T02:31:17;4.50;55.60
9118;DHT22;4594;50.994;7.126;2024-01-15T02:33:43;4.50;55.60
9118;DHT22;4594;50.994;7.126;2024-01-15T02:36:11;4.50;55.60
9118;DHT22;4594;50.994;7.126;2024-01-15T02:38:37;4.50;55.60
9118;DHT22;4594;50.994;7.126;2024-01-15T02:41:03;4.50;55.60
9118;DHT22;4594;50.994;7.126;2024-01-15T02:43:28;4.50;55.50
9118;DHT22;4594;50.994;7.126;2024-01-15T02:45:54;4.50;55.50
9118;DHT22;4594;50.994;7.126;2024-01-15T02:48:20;4.50;55.50
9118;DHT22;4594;50.994;7.126;2024-01-15T02:50:45;4.50;55.40
9118;DHT22;4594;50.994;7.126;2024-01-15T02:53:11;4.50;55.40
9118;DHT22;4594;50.994;7.126;2024-01-15T02:55:37;4.50;55.50
9118;DHT22;4594;50.994;7.126;2024-01-15T02:58:03;4.50;55.50
9118;DHT22;4594;50.994;7.126;2024-01-15T03:00:29;4.50;55.50
9118;DHT22;4594;50.994;7.126;2024-01-15T03:02:55;4.50;55.50
9118;DHT22;4594;50.994;7.126;2024-01-15T03:05:21;4.50;55.50
9118;DHT22;4594;50.994;7.126;2024-01-15T03:07:46;4.50;55.60
9118;DHT22;4594;50.994;7.126;2024-01-15T03:10:13;4.50;55.60
9118;DHT22;4594;50.994;7.126;2024-01-15T03:12:38;4.60;55.80
9118;DHT22;4594;50.994;7.126;2024-01-15T03:15:05;4.60;55.80
9118;DHT22;4594;50.994;7.126;2024-01-15T03:17:30;4.60;55.80
9118;DHT22;4594;50.994;7.126;2024-01-15T03:19:56;4.60;55.80
9118;DHT22;4594;50.994;7.126;2024-01-15T03:22:22;4.60;55.80
9118;DHT22;4594;50.994;7.126;2024-01-15T03:24:47;4.60;55.80
9118;DHT22;4594;50.994;7.126;2024-01-15T03:27:13;4.60;55.90
9118;DHT22;4594;50.994;7.126;2024-01-15T03:29:40;4.60;55.80
9118;DHT22;4594;50.994;7.126;2024-01-15T03:32:06;4.60;55.80
9118;DHT22;4594;50.994;7.126;2024-01-15T03:34:32;4.60;55.70
9118;DHT22;4594;50.994;7.126;2024-01-15T03:36:58;4.60;55.60
9118;DHT22;4594;50.994;7.126;2024-01-15T03:39:24;4.60;55.60
9118;DHT22;4594;50.994;7.126;2024-01-15T03:41:50;4.60;55.60
9118;DHT22;4594;50.994;7.126;2024-01-15T03:44:16;4.60;55.60
9118;DHT22;4594;50.994;7.126;2024-01-15T03:46:41;4.60;55.60
9118;DHT22;4594;50.994;7.126;2024-01-15T03:49:07;4.60;55.50
9118;DHT22;4594;50.994;7.126;2024-01-15T03:51:33;4.60;55.60
9118;DHT22;4594;50.994;7.126;2024-01-15T03:53:58;4.60;55.60
9118;DHT22;4594;50.994;7.126;2024-01-15T03:56:24;4.60;55.60
9118;DHT22;4594;50.994;7.126;2024-01-15T03:58:50;4.60;55.70
9118;DHT22;4594;50.994;7.126;2024-01-15T04:01:15;4.60;55.70
9118;DHT22;4594;50.994;7.126;2024-01-15T04:03:41;4.60;55.70
9118;DHT22;4594;50.994;7.126;2024-01-15T04:06:07;4.60;55.70
9118;DHT22;4594;50.994;7.126;2024-01-15T04:08:32;4.60;55.70
9118;DHT22;4594;50.994;7.126;2024-01-15T04:10:58;4.60;55.70
9118;DHT22;4594;50.994;7.126;2024-01-15T04:13:24;4.60;55.70
9118;DHT22;4594;50.994;7.126;2024-01-15T04:15:50;4.60;55.60
9118;DHT22;4594;50.994;7.126;2024-01-15T04:18:16;4.60;55.60
9118;DHT22;4594;50.994;7.126;2024-01-15T04:20:43;4.60;55.70
9118;DHT22;4594;50.994;7.126;2024-01-15T04:23:08;4.70;55.70
9118;DHT22;4594;50.994;7.126;2024-01-15T04:25:34;4.60;55.70
9118;DHT22;4594;50.994;7.126;2024-01-15T04:28:00;4.70;55.80
9118;DHT22;4594;50.994;7.126;2024-01-15T04:30:26;4.70;55.90
9118;DHT22;4594;50.994;7.126;2024-01-15T04:32:52;4.70;55.90
9118;DHT22;4594;50.994;7.126;2024-01-15T04:35:17;4.70;55.90
9118;DHT22;4594;50.994;7.126;2024-01-15T04:37:43;4.70;55.90
9118;DHT22;4594;50.994;7.126;2024-01-15T04:40:09;4.70;56.00
9118;DHT22;4594;50.994;7.126;2024-01-15T04:42:35;4.70;55.90
9118;DHT22;4594;50.994;7.126;2024-01-15T04:45:01;4.70;56.00
9118;DHT22;4594;50.994;7.126;2024-01-15T04:47:26;4.70;56.00
9118;DHT22;4594;50.994;7.126;2024-01-15T04:49:52;4.70;56.00
9118;DHT22;4594;50.994;7.126;2024-01-15T04:52:18;4.70;56.00
9118;DHT22;4594;50.994;7.126;2024-01-15T04:54:44;4.70;56.00
9118;DHT22;4594;50.994;7.126;2024-01-15T04:57:09;4.70;56.10
9118;DHT22;4594;50.994;7.126;2024-01-15T04:59:35;4.70;56.10
9118;DHT22;4594;50.994;7.126;2024-01-15T05:02:01;4.70;56.10
9118;DHT22;4594;50.994;7.126;2024-01-15T05:04:26;4.80;56.20
9118;DHT22;4594;50.994;7.126;2024-01-15T05:06:53;4.80;56.20
9118;DHT22;4594;50.994;7.126;2024-01-15T05:09:19;4.80;56.10
9118;DHT22;4594;50.994;7.126;2024-01-15T05:11:44;4.80;56.20
9118;DHT22;4594;50.994;7.126;2024-01-15T05:14:10;4.80;56.10
9118;DHT22;4594;50.994;7.126;2024-01-15T05:16:38;4.80;56.10
9118;DHT22;4594;50.994;7.126;2024-01-15T05:19:07;4.80;55.90
9118;DHT22;4594;50.994;7.126;2024-01-15T05:21:33;4.80;56.10
9118;DHT22;4594;50.994;7.126;2024-01-15T05:23:59;4.80;56.10
9118;DHT22;4594;50.994;7.126;2024-01-15T05:26:24;4.80;56.10
9118;DHT22;4594;50.994;7.126;2024-01-15T05:28:50;4.80;56.00
9118;DHT22;4594;50.994;7.126;2024-01-15T05:31:16;4.80;56.00
9118;DHT22;4594;50.994;7.126;2024-01-15T05:33:41;4.80;56.00
9118;DHT22;4594;50.994;7.126;2024-01-15T05:36:07;4.80;56.10
9118;DHT22;4594;50.994;7.126;2024-01-15T05:38:33;4.80;56.10
9118;DHT22;4594;50.994;7.126;2024-01-15T05:40:58;4.80;56.10
9118;DHT22;4594;50.994;7.126;2024-01-15T05:43:24;4.80;56.40
9118;DHT22;4594;50.994;7.126;2024-01-15T05:45:49;4.80;56.10
9118;DHT22;4594;50.994;7.126;2024-01-15T05:48:15;4.80;56.00
9118;DHT22;4594;50.994;7.126;2024-01-15T05:50:41;4.80;56.10
9118;DHT22;4594;50.994;7.126;2024-01-15T05:53:07;4.90;56.20
9118;DHT22;4594;50.994;7.126;2024-01-15T05:55:33;4.90;56.20
9118;DHT22;4594;50.994;7.126;2024-01-15T05:58:00;4.80;56.20
9118;DHT22;4594;50.994;7.126;2024-01-15T06:00:26;4.90;56.30
9118;DHT22;4594;50.994;7.126;2024-01-15T06:02:51;4.90;56.30
9118;DHT22;4594;50.994;7.126;2024-01-15T06:05:18;4.90;56.50
9118;DHT22;4594;50.994;7.126;2024-01-15T06:07:43;4.90;56.70
9118;DHT22;4594;50.994;7.126;2024-01-15T06:10:09;4.90;56.90
9118;DHT22;4594;50.994;7.126;2024-01-15T06:12:35;5.00;57.00
9118;DHT22;4594;50.994;7.126;2024-01-15T06:15:00;5.00;57.10
9118;DHT22;4594;50.994;7.126;2024-01-15T06:17:26;5.00;57.10
9118;DHT22;4594;50.994;7.126;2024-01-15T06:19:52;5.10;57.10
9118;DHT22;4594;50.994;7.126;2024-01-15T06:22:18;5.10;57.10
9118;DHT22;4594;50.994;7.126;2024-01-15T06:24:43;5.10;57.00
9118;DHT22;4594;50.994;7.126;2024-01-15T06:27:09;5.10;57.00
9118;DHT22;4594;50.994;7.126;2024-01-15T06:29:37;5.10;57.00
9118;DHT22;4594;50.994;7.126;2024-01-15T06:32:04;5.20;56.80
9118;DHT22;4594;50.994;7.126;2024-01-15T06:34:30;5.20;56.90
9118;DHT22;4594;50.994;7.126;2024-01-15T06:36:56;5.20;56.80
9118;DHT22;4594;50.994;7.126;2024-01-15T06:39:21;5.20;56.80
9118;DHT22;4594;50.994;7.126;2024-01-15T06:41:47;5.20;56.70
9118;DHT22;4594;50.994;7.126;2024-01-15T06:44:13;5.20;56.70
9118;DHT22;4594;50.994;7.126;2024-01-15T06:46:42;5.30;56.60
9118;DHT22;4594;50.994;7.126;2024-01-15T06:49:09;5.30;56.20
9118;DHT22;4594;50.994;7.126;2024-01-15T06:51:35;5.30;56.50
9118;DHT22;4594;50.994;7.126;2024-01-15T06:54:01;5.30;56.40
9118;DHT22;4594;50.994;7.126;2024-01-15T06:56:27;5.40;56.40
9118;DHT22;4594;50.994;7.126;2024-01-15T06:58:53;5.30;56.30
9118;DHT22;4594;50.994;7.126;2024-01-15T07:01:18;5.30;56.30
9118;DHT22;4594;50.994;7.126;2024-01-15T07:03:44;5.30;56.30
9118;DHT22;4594;50.994;7.126;2024-01-15T07:06:11;5.30;56.20
9118;DHT22;4594;50.994;7.126;2024-01-15T07:08:38;5.30;56.00
9118;DHT22;4594;50.994;7.126;2024-01-15T07:11:05;5.40;56.10
9118;DHT22;4594;50.994;7.126;2024-01-15T07:13:32;5.30;56.00
9118;DHT22;4594;50.994;7.126;2024-01-15T07:15:58;5.40;56.00
9118;DHT22;4594;50.994;7.126;2024-01-15T07:18:24;5.40;55.90
9118;DHT22;4594;50.994;7.126;2024-01-15T07:20:50;5.40;55.80
9118;DHT22;4594;50.994;7.126;2024-01-15T07:23:16;5.40;55.80
9118;DHT22;4594;50.994;7.126;2024-01-15T07:25:43;5.40;55.80
9118;DHT22;4594;50.994;7.126;2024-01-15T07:28:09;5.30;55.70
9118;DHT22;4594;50.994;7.126;2024-01-15T07:30:35;5.30;55.80
9118;DHT22;4594;50.994;7.126;2024-01-15T07:33:01;5.30;55.80
9118;DHT22;4594;50.994;7.126;2024-01-15T07:35:26;5.30;55.80
9118;DHT22;4594;50.994;7.126;2024-01-15T07:37:52;5.30;55.90
9118;DHT22;4594;50.994;7.126;2024-01-15T07:40:18;5.30;56.00
9118;DHT22;4594;50.994;7.126;2024-01-15T07:42:43;5.30;56.00
9118;DHT22;4594;50.994;7.126;2024-01-15T07:45:10;5.30;56.00
9118;DHT22;4594;50.994;7.126;2024-01-15T07:47:36;5.30;56.00
9118;DHT22;4594;50.994;7.126;2024-01-15T07:50:03;5.30;56.10
9118;DHT22;4594;50.994;7.126;2024-01-15T07:52:30;5.30;56.10
9118;DHT22;4594;50.994;7.126;2024-01-15T07:54:56;5.30;56.10
9118;DHT22;4594;50.994;7.126;2024-01-15T07:57:22;5.30;56.20
9118;DHT22;4594;50.994;7.126;2024-01-15T07:59:48;5.30;56.30
9118;DHT22;4594;50.994;7.126;2024-01-15T08:02:14;5.30;56.40
9118;DHT22;4594;50.994;7.126;2024-01-15T08:04:40;5.30;56.40
9118;DHT22;4594;50.994;7.126;2024-01-15T08:07:06;5.30;56.40
9118;DHT22;4594;50.994;7.126;2024-01-15T08:09:35;5.40;56.50
9118;DHT22;4594;50.994;7.126;2024-01-15T08:12:00;5.30;56.40
9118;DHT22;4594;50.994;7.126;2024-01-15T08:14:26;5.40;56.50
9118;DHT22;4594;50.994;7.126;2024-01-15T08:16:52;5.40;56.50
9118;DHT22;4594;50.994;7.126;2024-01-15T08:19:18;5.40;56.50
9118;DHT22;4594;50.994;7.126;2024-01-15T08:21:45;5.40;56.60
9118;DHT22;4594;50.994;7.126;2024-01-15T08:24:11;5.40;56.50
9118;DHT22;4594;50.994;7.126;2024-01-15T08:26:37;5.40;56.60
9118;DHT22;4594;50.994;7.126;2024-01-15T08:29:02;5.40;56.70
9118;DHT22;4594;50.994;7.126;2024-01-15T08:31:28;5.40;56.80
9118;DHT22;4594;50.994;7.126;2024-01-15T08:33:54;5.40;56.80
9118;DHT22;4594;50.994;7.126;2024-01-15T08:36:21;5.50;56.90
9118;DHT22;4594;50.994;7.126;2024-01-15T08:38:47;5.50;56.90
9118;DHT22;4594;50.994;7.126;2024-01-15T08:41:13;5.50;56.90
9118;DHT22;4594;50.994;7.126;2024-01-15T08:43:39;5.50;56.80
9118;DHT22;4594;50.994;7.126;2024-01-15T08:46:05;5.50;56.70
9118;DHT22;4594;50.994;7.126;2024-01-15T08:48:31;5.50;56.60
9118;DHT22;4594;50.994;7.126;2024-01-15T08:50:56;5.50;56.70
9118;DHT22;4594;50.994;7.126;2024-01-15T08:53:22;5.60;56.80
9118;DHT22;4594;50.994;7.126;2024-01-15T08:55:48;5.60;56.80
9118;DHT22;4594;50.994;7.126;2024-01-15T08:58:15;5.50;56.60
9118;DHT22;4594;50.994;7.126;2024-01-15T09:00:41;5.60;56.70
9118;DHT22;4594;50.994;7.126;2024-01-15T09:03:07;5.60;56.70
9118;DHT22;4594;50.994;7.126;2024-01-15T09:05:34;5.60;56.70
9118;DHT22;4594;50.994;7.126;2024-01-15T09:08:00;5.60;56.60
9118;DHT22;4594;50.994;7.126;2024-01-15T09:10:26;5.60;56.50
9118;DHT22;4594;50.994;7.126;2024-01-15T09:12:51;5.60;56.20
9118;DHT22;4594;50.994;7.126;2024-01-15T09:15:17;5.60;56.30
9118;DHT22;4594;50.994;7.126;2024-01-15T09:17:43;5.60;56.00
9118;DHT22;4594;50.994;7.126;2024-01-15T09:20:10;5.60;55.90
9118;DHT22;4594;50.994;7.126;2024-01-15T09:22:39;5.60;55.70
9118;DHT22;4594;50.994;7.126;2024-01-15T09:25:08;5.60;55.50
9118;DHT22;4594;50.994;7.126;2024-01-15T09:27:37;5.50;55.60
9118;DHT22;4594;50.994;7.126;2024-01-15T09:30:04;5.50;55.60
9118;DHT22;4594;50.994;7.126;2024-01-15T09:32:30;5.40;55.50
9118;DHT22;4594;50.994;7.126;2024-01-15T09:34:56;5.60;55.80
9118;DHT22;4594;50.994;7.126;2024-01-15T09:37:22;5.40;55.60
9118;DHT22;4594;50.994;7.126;2024-01-15T09:39:49;5.40;55.60
9118;DHT22;4594;50.994;7.126;2024-01-15T09:42:16;5.40;55.70
9118;DHT22;4594;50.994;7.126;2024-01-15T09:44:42;5.40;55.70
9118;DHT22;4594;50.994;7.126;2024-01-15T09:47:08;5.40;55.80
9118;DHT22;4594;50.994;7.126;2024-01-15T09:49:34;5.30;55.80
9118;DHT22;4594;50.994;7.126;2024-01-15T09:52:01;5.40;55.90
9118;DHT22;4594;50.994;7.126;2024-01-15T09:54:27;5.40;55.80
9118;DHT22;4594;50.994;7.126;2024-01-15T09:56:54;5.30;55.80
9118;DHT22;4594;50.994;7.126;2024-01-15T09:59:22;5.30;55.60
9118;DHT22;4594;50.994;7.126;2024-01-15T10:01:50;5.30;55.60
9118;DHT22;4594;50.994;7.126;2024-01-15T10:04:17;5.30;55.70
9118;DHT22;4594;50.994;7.126;2024-01-15T10:06:44;5.30;55.80
9118;DHT22;4594;50.994;7.126;2024-01-15T10:09:12;5.30;55.70
9118;DHT22;4594;50.994;7.126;2024-01-15T10:11:44;5.30;55.90
9118;DHT22;4594;50.994;7.126;2024-01-15T10:14:11;5.30;56.00
9118;DHT22;4594;50.994;7.126;2024-01-15T10:16:40;5.30;56.00
9118;DHT22;4594;50.994;7.126;2024-01-15T10:19:07;5.30;56.00
9118;DHT22;4594;50.994;7.126;2024-01-15T10:21:34;5.30;55.90
9118;DHT22;4594;50.994;7.126;2024-01-15T10:24:01;5.30;56.00
9118;DHT22;4594;50.994;7.126;2024-01-15T10:26:32;5.30;56.00
9118;DHT22;4594;50.994;7.126;2024-01-15T10:29:00;5.30;56.00
9118;DHT22;4594;50.994;7.126;2024-01-15T10:31:27;5.30;55.70
9118;DHT22;4594;50.994;7.126;2024-01-15T10:33:54;5.30;56.00
9118;DHT22;4594;50.994;7.126;2024-01-15T10:36:19;5.20;55.90
9118;DHT22;4594;50.994;7.126;2024-01-15T10:38:46;5.30;56.00
9118;DHT22;4594;50.994;7.126;2024-01-15T10:41:12;5.20;55.90
9118;DHT22;4594;50.994;7.126;2024-01-15T10:43:38;5.20;55.90
9118;DHT22;4594;50.994;7.126;2024-01-15T10:46:06;5.20;55.90
9118;DHT22;4594;50.994;7.126;2024-01-15T10:48:33;5.20;55.90
9118;DHT22;4594;50.994;7.126;2024-01-15T10:51:01;5.20;55.90
9118;DHT22;4594;50.994;7.126;2024-01-15T10:53:39;5.20;56.00
9118;DHT22;4594;50.994;7.126;2024-01-15T10:56:10;5.20;56.10
9118;DHT22;4594;50.994;7.126;2024-01-15T10:58:39;5.20;56.10
9118;DHT22;4594;50.994;7.126;2024-01-15T11:01:06;5.20;56.20
9118;DHT22;4594;50.994;7.126;2024-01-15T11:03:32;5.20;56.30
9118;DHT22;4594;50.994;7.126;2024-01-15T11:05:59;5.20;56.20
9118;DHT22;4594;50.994;7.126;2024-01-15T11:08:25;5.20;56.20
9118;DHT22;4594;50.994;7.126;2024-01-15T11:10:51;5.20;56.30
9118;DHT22;4594;50.994;7.126;2024-01-15T11:13:22;5.20;56.30
9118;DHT22;4594;50.994;7.126;2024-01-15T11:16:09;5.20;56.00
9118;DHT22;4594;50.994;7.126;2024-01-15T11:19:02;5.30;56.10
9118;DHT22;4594;50.994;7.126;2024-01-15T11:21:28;5.30;56.30
9118;DHT22;4594;50.994;7.126;2024-01-15T11:23:57;5.30;56.70
9118;DHT22;4594;50.994;7.126;2024-01-15T11:26:28;5.30;56.80
9118;DHT22;4594;50.994;7.126;2024-01-15T11:29:41;5.30;56.60
9118;DHT22;4594;50.994;7.126;2024-01-15T11:32:10;5.30;55.40
9118;DHT22;4594;50.994;7.126;2024-01-15T11:34:55;5.40;56.60
9118;DHT22;4594;50.994;7.126;2024-01-15T11:38:09;5.40;55.80
9118;DHT22;4594;50.994;7.126;2024-01-15T11:40:35;5.40;56.80
9118;DHT22;4594;50.994;7.126;2024-01-15T11:43:04;5.40;56.60
9118;DHT22;4594;50.994;7.126;2024-01-15T11:45:31;5.40;56.90
9118;DHT22;4594;50.994;7.126;2024-01-15T11:50:33;5.50;57.00
9118;DHT22;4594;50.994;7.126;2024-01-15T11:53:01;5.50;57.40
9118;DHT22;4594;50.994;7.126;2024-01-15T11:55:34;5.50;57.30
9118;DHT22;4594;50.994;7.126;2024-01-15T11:58:07;5.50;56.90
9118;DHT22;4594;50.994;7.126;2024-01-15T12:00:42;5.60;57.10
9118;DHT22;4594;50.994;7.126;2024-01-15T12:03:10;5.60;57.00
9118;DHT22;4594;50.994;7.126;2024-01-15T12:05:40;5.60;57.40
9118;DHT22;4594;50.994;7.126;2024-01-15T12:08:07;5.70;57.10
9118;DHT22;4594;50.994;7.126;2024-01-15T12:10:40;5.70;57.40
9118;DHT22;4594;50.994;7.126;2024-01-15T12:15:36;5.70;57.00
9118;DHT22;4594;50.994;7.126;2024-01-15T12:18:02;6.30;57.80
9118;DHT22;4594;50.994;7.126;2024-01-15T12:20:32;5.80;57.30
9118;DHT22;4594;50.994;7.126;2024-01-15T12:22:58;5.80;56.80
9118;DHT22;4594;50.994;7.126;2024-01-15T12:25:24;5.80;57.20
9118;DHT22;4594;50.994;7.126;2024-01-15T12:27:53;5.80;57.30
9118;DHT22;4594;50.994;7.126;2024-01-15T12:30:19;5.80;57.50
9118;DHT22;4594;50.994;7.126;2024-01-15T12:32:45;5.90;57.80
9118;DHT22;4594;50.994;7.126;2024-01-15T12:35:13;5.90;58.20
9118;DHT22;4594;50.994;7.126;2024-01-15T12:37:40;6.00;58.60
9118;DHT22;4594;50.994;7.126;2024-01-15T12:40:08;6.10;58.70
9118;DHT22;4594;50.994;7.126;2024-01-15T12:42:41;6.10;58.60
9118;DHT22;4594;50.994;7.126;2024-01-15T12:45:09;6.10;57.70
9118;DHT22;4594;50.994;7.126;2024-01-15T12:47:37;6.20;58.20
9118;DHT22;4594;50.994;7.126;2024-01-15T12:50:06;6.20;57.90
9118;DHT22;4594;50.994;7.126;2024-01-15T12:52:33;6.20;57.30
9118;DHT22;4594;50.994;7.126;2024-01-15T12:55:00;6.30;57.40
9118;DHT22;4594;50.994;7.126;2024-01-15T12:57:25;6.30;57.20
9118;DHT22;4594;50.994;7.126;2024-01-15T12:59:51;6.30;57.10
9118;DHT22;4594;50.994;7.126;2024-01-15T13:02:18;6.20;56.80
9118;DHT22;4594;50.994;7.126;2024-01-15T13:04:44;6.20;56.60
9118;DHT22;4594;50.994;7.126;2024-01-15T13:07:10;7.10;57.30
9118;DHT22;4594;50.994;7.126;2024-01-15T13:09:36;6.20;56.70
9118;DHT22;4594;50.994;7.126;2024-01-15T13:12:02;6.20;56.70
9118;DHT22;4594;50.994;7.126;2024-01-15T13:14:28;6.10;56.60
9118;DHT22;4594;50.994;7.126;2024-01-15T13:16:54;6.20;56.80
9118;DHT22;4594;50.994;7.126;2024-01-15T13:19:22;6.10;56.70
9118;DHT22;4594;50.994;7.126;2024-01-15T13:21:48;6.10;56.70
9118;DHT22;4594;50.994;7.126;2024-01-15T13:24:15;6.10;56.80
9118;DHT22;4594;50.994;7.126;2024-01-15T13:26:41;6.10;56.60
9118;DHT22;4594;50.994;7.126;2024-01-15T13:29:06;6.10;56.60
9118;DHT22;4594;50.994;7.126;2024-01-15T13:31:33;6.10;56.60
9118;DHT22;4594;50.994;7.126;2024-01-15T13:33:59;6.10;56.60
9118;DHT22;4594;50.994;7.126;2024-01-15T13:36:26;6.10;56.70
9118;DHT22;4594;50.994;7.126;2024-01-15T13:38:53;6.10;56.60
9118;DHT22;4594;50.994;7.126;2024-01-15T13:41:19;6.10;56.60
9118;DHT22;4594;50.994;7.126;2024-01-15T13:43:49;6.10;56.60
9118;DHT22;4594;50.994;7.126;2024-01-15T13:46:18;6.10;56.30
9118;DHT22;4594;50.994;7.126;2024-01-15T13:48:44;6.10;56.60
9118;DHT22;4594;50.994;7.126;2024-01-15T13:51:10;6.10;56.60
9118;DHT22;4594;50.994;7.126;2024-01-15T13:53:38;6.10;56.60
9118;DHT22;4594;50.994;7.126;2024-01-15T13:56:04;6.10;56.50
9118;DHT22;4594;50.994;7.126;2024-01-15T13:58:31;6.10;56.50
9118;DHT22;4594;50.994;7.126;2024-01-15T14:00:58;6.10;56.50
9118;DHT22;4594;50.994;7.126;2024-01-15T14:03:24;6.10;56.60
9118;DHT22;4594;50.994;7.126;2024-01-15T14:05:51;6.10;56.60
9118;DHT22;4594;50.994;7.126;2024-01-15T14:08:17;6.10;56.60
9118;DHT22;4594;50.994;7.126;2024-01-15T14:10:43;6.10;56.60
9118;DHT22;4594;50.994;7.126;2024-01-15T14:13:09;6.10;56.70
9118;DHT22;4594;50.994;7.126;2024-01-15T14:15:35;6.00;56.60
9118;DHT22;4594;50.994;7.126;2024-01-15T14:18:00;6.10;56.90
9118;DHT22;4594;50.994;7.126;2024-01-15T14:20:26;6.10;56.50
9118;DHT22;4594;50.994;7.126;2024-01-15T14:22:53;6.10;56.40
9118;DHT22;4594;50.994;7.126;2024-01-15T14:25:20;6.10;56.40
9118;DHT22;4594;50.994;7.126;2024-01-15T14:27:46;6.00;56.30
9118;DHT22;4594;50.994;7.126;2024-01-15T14:30:13;6.00;56.20
9118;DHT22;4594;50.994;7.126;2024-01-15T14:32:41;6.00;56.20
9118;DHT22;4594;50.994;7.126;2024-01-15T14:35:08;6.00;56.50
9118;DHT22;4594;50.994;7.126;2024-01-15T14:37:36;6.00;56.50
9118;DHT22;4594;50.994;7.126;2024-01-15T14:40:06;6.00;56.40
9118;DHT22;4594;50.994;7.126;2024-01-15T14:42:41;5.90;56.00
9118;DHT22;4594;50.994;7.126;2024-01-15T14:45:07;5.90;56.10
9118;DHT22;4594;50.994;7.126;2024-01-15T14:47:37;5.90;56.10
9118;DHT22;4594;50.994;7.126;2024-01-15T14:50:06;5.90;56.10
9118;DHT22;4594;50.994;7.126;2024-01-15T14:52:32;5.90;56.00
9118;DHT22;4594;50.994;7.126;2024-01-15T14:54:59;5.80;56.10
9118;DHT22;4594;50.994;7.126;2024-01-15T14:57:25;5.80;56.30
9118;DHT22;4594;50.994;7.126;2024-01-15T14:59:50;5.80;56.10
9118;DHT22;4594;50.994;7.126;2024-01-15T15:02:16;5.80;56.20
9118;DHT22;4594;50.994;7.126;2024-01-15T15:04:43;5.80;56.20
9118;DHT22;4594;50.994;7.126;2024-01-15T15:07:09;5.80;56.20
9118;DHT22;4594;50.994;7.126;2024-01-15T15:09:35;5.80;56.50
9118;DHT22;4594;50.994;7.126;2024-01-15T15:12:03;5.80;56.30
9118;DHT22;4594;50.994;7.126;2024-01-15T15:14:30;5.80;56.60
9118;DHT22;4594;50.994;7.126;2024-01-15T15:16:57;5.70;56.20
9118;DHT22;4594;50.994;7.126;2024-01-15T15:19:23;7.20;57.30
9118;DHT22;4594;50.994;7.126;2024-01-15T15:21:49;5.70;56.10
9118;DHT22;4594;50.994;7.126;2024-01-15T15:24:14;5.70;56.10
9118;DHT22;4594;50.994;7.126;2024-01-15T15:26:40;5.70;56.10
9118;DHT22;4594;50.994;7.126;2024-01-15T15:29:06;5.70;56.10
9118;DHT22;4594;50.994;7.126;2024-01-15T15:31:31;5.70;56.00
9118;DHT22;4594;50.994;7.126;2024-01-15T15:33:57;5.70;55.90
9118;DHT22;4594;50.994;7.126;2024-01-15T15:36:23;5.70;55.90
9118;DHT22;4594;50.994;7.126;2024-01-15T15:38:49;5.60;55.90
9118;DHT22;4594;50.994;7.126;2024-01-15T15:41:14;5.60;55.90
9118;DHT22;4594;50.994;7.126;2024-01-15T15:43:40;5.60;55.80
9118;DHT22;4594;50.994;7.126;2024-01-15T15:46:06;5.60;55.80
9118;DHT22;4594;50.994;7.126;2024-01-15T15:48:32;5.60;55.80
9118;DHT22;4594;50.994;7.126;2024-01-15T15:50:57;6.40;56.50
9118;DHT22;4594;50.994;7.126;2024-01-15T15:53:25;7.40;57.20
9118;DHT22;4594;50.994;7.126;2024-01-15T15:55:51;5.50;55.90
9118;DHT22;4594;50.994;7.126;2024-01-15T15:58:17;5.50;55.90
9118;DHT22;4594;50.994;7.126;2024-01-15T16:00:43;6.20;56.40
9118;DHT22;4594;50.994;7.126;2024-01-15T16:03:09;5.50;55.90
9118;DHT22;4594;50.994;7.126;2024-01-15T16:05:34;5.50;55.80
9118;DHT22;4594;50.994;7.126;2024-01-15T16:08:00;5.50;55.80
9118;DHT22;4594;50.994;7.126;2024-01-15T16:10:26;5.40;55.70
9118;DHT22;4594;50.994;7.126;2024-01-15T16:12:51;5.40;55.70
9118;DHT22;4594;50.994;7.126;2024-01-15T16:15:19;5.50;55.70
9118;DHT22;4594;50.994;7.126;2024-01-15T16:17:47;5.40;55.60